Time;durP1;ratioP1;P1;durP2;ratioP2;P2;SDS_P1;SDS_P2;PMS_P1;PMS_P2;Temp;Humidity;BMP_temperature;BMP_pressure;BME280_temperature;BME280_humidity;BME280_pressure;Samples;Min_cycle;Max_cycle;Signal;HPM_P1;HPM_P2
2020/12/08 00:01:17;;;;;;;8.33;4.42;;;;;;;-3.81;54.11;101910.09;1790426;77;21171;-60
2020/12/08 00:03:44;;;;;;;11.18;4.75;;;;;;;-3.84;54.31;101896.36;1791642;77;21486;-60
2020/12/08 00:06:14;;;;;;;12.90;4.33;;;;;;;-3.84;54.57;101896.36;1792299;77;21176;-60
2020/12/08 00:08:43;;;;;;;11.95;4.47;;;;;;;-3.85;54.33;101901.94;1792318;77;21234;-60
2020/12/08 00:11:16;;;;;;;11.75;4.62;;;;;;;-3.85;54.47;101893.34;1792795;77;21220;-60
2020/12/08 00:13:47;;;;;;;11.25;5.00;;;;;;;-3.85;54.22;101903.63;1792436;77;21643;-58
2020/12/08 00:16:14;;;;;;;12.33;5.37;;;;;;;-3.84;54.38;101902.79;1789083;77;21367;-58
2020/12/08 00:18:42;;;;;;;9.88;4.75;;;;;;;-3.83;54.12;101900.23;1789976;78;22566;-59
2020/12/08 00:21:09;;;;;;;9.33;4.00;;;;;;;-3.88;53.83;101901.92;1792153;77;21651;-59
2020/12/08 00:23:37;;;;;;;12.50;4.97;;;;;;;-3.87;54.06;101898.91;1792641;77;21184;-59
2020/12/08 00:26:05;;;;;;;14.83;6.05;;;;;;;-3.90;54.20;101888.61;1791148;77;21840;-59
2020/12/08 00:28:34;;;;;;;9.60;5.08;;;;;;;-3.91;54.01;101873.62;1791507;77;23366;-59
2020/12/08 00:31:01;;;;;;;12.88;5.40;;;;;;;-3.92;53.96;101880.48;1791728;77;21497;-59
2020/12/08 00:33:29;;;;;;;9.50;4.70;;;;;;;-3.99;53.89;101880.00;1791990;77;21859;-59
2020/12/08 00:35:58;;;;;;;8.58;4.05;;;;;;;-3.96;54.26;101874.03;1791519;77;21923;-59
2020/12/08 00:38:26;;;;;;;18.17;4.67;;;;;;;-3.92;54.03;101879.60;1790757;77;21628;-59
2020/12/08 00:40:54;;;;;;;8.95;4.60;;;;;;;-3.98;53.98;101868.88;1788944;77;21194;-59
2020/12/08 00:43:21;;;;;;;10.25;4.65;;;;;;;-4.04;54.30;101875.27;1789947;77;21243;-59
2020/12/08 00:45:48;;;;;;;12.03;5.37;;;;;;;-4.04;54.48;101866.70;1791200;77;21218;-59
2020/12/08 00:48:16;;;;;;;10.53;5.00;;;;;;;-4.03;54.49;101873.14;1792113;77;21191;-59
2020/12/08 00:50:44;;;;;;;10.63;4.85;;;;;;;-4.08;54.35;101869.69;1789338;77;21171;-58
2020/12/08 00:53:13;;;;;;;9.83;5.22;;;;;;;-4.09;54.46;101870.53;1793256;77;21357;-59
2020/12/08 00:55:41;;;;;;;11.33;4.30;;;;;;;-4.04;54.51;101862.41;1758578;78;21259;-58
2020/12/08 00:58:09;;;;;;;9.10;4.55;;;;;;;-3.98;54.43;101856.45;1790025;78;21183;-59
2020/12/08 01:00:37;;;;;;;10.32;4.85;;;;;;;-4.03;54.50;101855.14;1792002;78;21223;-59
2020/12/08 01:03:06;;;;;;;9.03;4.67;;;;;;;-4.07;54.80;101847.41;1790182;78;21184;-59
2020/12/08 01:05:33;;;;;;;8.33;4.12;;;;;;;-4.05;54.97;101845.28;1791679;77;21270;-58
2020/12/08 01:08:02;;;;;;;11.15;5.67;;;;;;;-4.02;55.16;101850.41;1760155;78;21192;-59
2020/12/08 01:10:29;;;;;;;9.83;4.62;;;;;;;-4.02;54.78;101850.41;1792569;77;21171;-58
2020/12/08 01:12:57;;;;;;;7.97;4.42;;;;;;;-4.10;54.64;101848.27;1794483;77;21152;-59
2020/12/08 01:15:25;;;;;;;10.63;4.45;;;;;;;-4.17;54.91;101849.95;1791832;77;21179;-59
2020/12/08 01:17:53;;;;;;;11.33;4.33;;;;;;;-4.18;55.06;101866.66;1791897;77;21320;-59
2020/12/08 01:20:21;;;;;;;8.55;4.17;;;;;;;-4.18;55.01;101861.51;1791380;77;21175;-59
2020/12/08 01:22:51;;;;;;;11.28;5.33;;;;;;;-4.18;55.29;101859.79;1793177;77;21188;-59
2020/12/08 01:25:18;;;;;;;8.90;4.83;;;;;;;-4.13;55.02;101864.95;1793171;77;21410;-59
2020/12/08 01:27:47;;;;;;;10.48;4.53;;;;;;;-4.11;55.07;101864.53;1792737;77;21188;-59
2020/12/08 01:30:15;;;;;;;8.55;4.35;;;;;;;-4.10;54.64;101859.84;1791281;78;21998;-59
2020/12/08 01:32:46;;;;;;;7.97;3.90;;;;;;;-4.15;54.62;101862.81;1793473;77;21183;-59
2020/12/08 01:35:17;;;;;;;13.83;5.17;;;;;;;-4.13;54.91;101870.95;1758541;78;21274;-59
2020/12/08 01:37:45;;;;;;;11.33;6.10;;;;;;;-4.09;54.78;101867.96;1791142;77;21156;-59
2020/12/08 01:40:13;;;;;;;12.45;5.53;;;;;;;-4.05;54.92;101868.42;1767629;78;21512;-59
2020/12/08 01:42:41;;;;;;;7.97;4.95;;;;;;;-4.01;54.81;101870.14;1791906;77;21186;-59
2020/12/08 01:45:09;;;;;;;8.75;4.22;;;;;;;-4.04;54.75;101858.55;1792166;77;21915;-60
2020/12/08 01:47:38;;;;;;;8.95;4.60;;;;;;;-4.07;54.74;101866.25;1794053;77;21239;-60
2020/12/08 01:50:06;;;;;;;10.82;5.17;;;;;;;-4.09;54.73;101867.96;1792304;77;21486;-60
2020/12/08 01:52:35;;;;;;;10.75;5.05;;;;;;;-4.11;54.66;101861.96;1792382;77;21547;-61
2020/12/08 01:55:05;;;;;;;10.23;3.83;;;;;;;-4.15;54.75;101861.09;1790006;78;21360;-61
2020/12/08 01:57:35;;;;;;;12.70;5.72;;;;;;;-4.18;54.81;101855.93;1790974;78;21222;-60
2020/12/08 02:00:06;;;;;;;6.25;4.03;;;;;;;-4.15;55.06;101858.95;1791856;77;21192;-60
2020/12/08 02:02:37;;;;;;;10.85;5.42;;;;;;;-4.09;55.15;101858.96;1790958;78;21204;-60
2020/12/08 02:05:05;;;;;;;11.53;5.55;;;;;;;-4.08;54.86;101855.55;1791778;78;21203;-60
2020/12/08 02:07:33;;;;;;;12.88;5.37;;;;;;;-4.12;55.05;101863.69;1791720;78;21393;-60
2020/12/08 02:10:02;;;;;;;9.98;4.75;;;;;;;-4.13;54.92;101868.38;1791461;78;21227;-60
2020/12/08 02:12:31;;;;;;;10.58;4.37;;;;;;;-4.12;54.70;101873.09;1746132;78;21192;-60
2020/12/08 02:14:59;;;;;;;11.55;4.67;;;;;;;-4.13;54.70;101865.81;1790986;78;21097;-60
2020/12/08 02:17:28;;;;;;;12.00;5.53;;;;;;;-4.15;54.86;101866.67;1792789;78;21904;-60
2020/12/08 02:22:27;;;;;;;9.40;5.20;;;;;;;-4.12;55.14;101861.52;1750879;78;22091;-59
2020/12/08 02:24:55;;;;;;;11.22;5.12;;;;;;;-4.13;55.03;101867.53;1725850;82;21168;-58
2020/12/08 02:27:23;;;;;;;11.80;6.12;;;;;;;-4.16;55.00;101871.36;1723534;82;21342;-59
2020/12/08 02:29:52;;;;;;;13.95;5.65;;;;;;;-4.16;55.22;101859.36;1724095;82;21025;-61
2020/12/08 02:32:21;;;;;;;10.43;4.65;;;;;;;-4.13;55.17;101864.52;1701959;82;21576;-61
2020/12/08 02:34:49;;;;;;;9.43;5.22;;;;;;;-4.12;55.22;101861.11;1722899;82;21127;-61
2020/12/08 02:37:17;;;;;;;10.35;5.00;;;;;;;-4.13;55.03;101861.95;1722702;82;21105;-60
2020/12/08 02:39:47;;;;;;;7.75;4.70;;;;;;;-4.15;55.11;101858.95;1698880;82;21379;-60
2020/12/08 02:42:18;;;;;;;9.98;4.40;;;;;;;-4.13;55.45;101854.23;1724491;82;21184;-61
2020/12/08 02:44:47;;;;;;;10.00;5.03;;;;;;;-4.13;55.43;101854.67;1701997;82;21220;-60
2020/12/08 02:47:15;;;;;;;8.53;4.70;;;;;;;-4.14;55.35;101858.08;1718886;82;21176;-60
2020/12/08 02:49:43;;;;;;;9.63;5.40;;;;;;;-4.13;55.32;101852.11;1725347;82;21128;-61
2020/12/08 02:52:11;;;;;;;8.73;4.50;;;;;;;-4.15;55.38;101855.95;1722609;82;21200;-59
2020/12/08 02:54:41;;;;;;;9.53;4.58;;;;;;;-4.09;55.32;101853.83;1721069;82;21742;-60
2020/12/08 02:57:09;;;;;;;12.23;5.50;;;;;;;-4.11;55.20;101848.67;1723094;82;21168;-60
2020/12/08 02:59:38;;;;;;;12.33;5.08;;;;;;;-4.09;55.18;101851.25;1721526;82;21231;-61
2020/12/08 03:02:07;;;;;;;11.18;4.83;;;;;;;-4.12;55.05;101841.83;1722359;82;21164;-60
2020/12/08 03:04:36;;;;;;;10.93;5.03;;;;;;;-4.15;55.21;101844.82;1723035;82;21396;-61
2020/12/08 03:07:05;;;;;;;10.65;5.00;;;;;;;-4.17;55.09;101850.36;1722817;82;21611;-60
2020/12/08 03:09:33;;;;;;;12.90;5.30;;;;;;;-4.17;55.20;101845.21;1693423;82;21220;-60
2020/12/08 03:12:01;;;;;;;15.72;6.17;;;;;;;-4.12;55.25;101843.11;1718306;82;21856;-60
2020/12/08 03:14:29;;;;;;;10.93;4.67;;;;;;;-4.01;55.38;101847.44;1722595;82;21113;-60
2020/12/08 03:16:58;;;;;;;9.45;5.28;;;;;;;-4.00;55.28;101850.02;1722588;82;21373;-59
2020/12/08 03:19:28;;;;;;;9.98;5.15;;;;;;;-3.99;55.74;101850.43;1722357;82;21155;-61
2020/12/08 03:21:56;;;;;;;12.37;5.75;;;;;;;-3.95;55.50;101849.61;1714367;81;21125;-60
2020/12/08 03:24:25;;;;;;;11.70;5.17;;;;;;;-3.93;55.58;101842.75;1708667;82;21180;-60
2020/12/08 03:26:56;;;;;;;11.20;5.20;;;;;;;-3.90;55.56;101834.61;1707375;82;21168;-60
2020/12/08 03:29:24;;;;;;;11.33;6.00;;;;;;;-3.90;55.75;101835.48;1709173;82;23706;-60
2020/12/08 03:31:52;;;;;;;9.70;4.85;;;;;;;-3.89;55.50;101839.75;1708214;82;21561;-61
2020/12/08 03:34:20;;;;;;;12.55;5.33;;;;;;;-3.91;55.74;101838.90;1709694;82;21203;-60
2020/12/08 03:36:50;;;;;;;8.60;4.95;;;;;;;-3.91;55.76;101831.19;1710097;82;21696;-60
2020/12/08 03:39:19;;;;;;;14.20;4.60;;;;;;;-3.94;55.90;101829.45;1711571;82;21126;-60
2020/12/08 03:41:47;;;;;;;9.78;4.42;;;;;;;-3.95;56.09;101832.89;1711519;82;23243;-60
2020/12/08 03:44:16;;;;;;;12.37;5.40;;;;;;;-3.91;55.98;101831.19;1710441;82;21148;-60
2020/12/08 03:46:43;;;;;;;12.98;4.90;;;;;;;-3.85;55.66;101823.91;1711406;82;21160;-60
2020/12/08 03:49:12;;;;;;;12.05;5.78;;;;;;;-3.85;55.49;101834.19;1708362;82;21192;-60
2020/12/08 03:51:40;;;;;;;9.88;5.17;;;;;;;-3.84;55.92;101820.48;1709531;82;21205;-60
2020/12/08 03:54:10;;;;;;;13.38;5.85;;;;;;;-3.80;55.93;101827.34;1707744;82;23765;-60
2020/12/08 03:56:44;;;;;;;11.93;4.78;;;;;;;-3.81;55.82;101830.35;1708396;82;21232;-59
2020/12/08 03:59:19;;;;;;;13.05;5.62;;;;;;;-3.83;55.93;101828.21;1710012;82;21120;-59
2020/12/08 04:01:49;;;;;;;11.35;5.80;;;;;;;-3.82;55.61;101825.20;1707172;82;21605;-59
2020/12/08 04:04:18;;;;;;;15.28;5.08;;;;;;;-3.93;55.48;101828.61;1709079;82;21232;-60
2020/12/08 04:06:47;;;;;;;8.95;4.87;;;;;;;-3.99;55.48;101823.43;1710770;82;21378;-60
2020/12/08 04:09:15;;;;;;;13.32;5.25;;;;;;;-4.04;55.62;101821.27;1684044;82;21626;-60
2020/12/08 04:11:44;;;;;;;9.50;4.60;;;;;;;-4.09;55.90;101821.69;1712302;82;21152;-60
2020/12/08 04:14:12;;;;;;;10.53;5.33;;;;;;;-4.11;56.10;101816.97;1710549;82;21220;-62
2020/12/08 04:16:40;;;;;;;11.70;4.87;;;;;;;-4.12;56.40;101822.55;1708198;82;21168;-62
2020/12/08 04:19:09;;;;;;;10.78;4.95;;;;;;;-4.16;56.35;101822.52;1710274;82;21295;-59
2020/12/08 04:21:37;;;;;;;11.70;5.87;;;;;;;-4.19;56.37;101814.80;1713244;82;21202;-60
2020/12/08 04:24:10;;;;;;;10.55;5.05;;;;;;;-4.16;56.67;101814.38;1719680;82;21196;-60
2020/12/08 04:26:37;;;;;;;14.18;5.17;;;;;;;-4.07;56.86;101817.84;1721615;82;22499;-60
2020/12/08 04:29:07;;;;;;;8.48;4.50;;;;;;;-4.04;57.06;101813.56;1721161;82;21730;-60
2020/12/08 04:31:36;;;;;;;10.93;4.53;;;;;;;-4.00;56.76;101811.45;1723243;82;22827;-61
2020/12/08 04:34:05;;;;;;;12.37;5.72;;;;;;;-3.97;56.56;101815.32;1721052;82;21434;-61
2020/12/08 04:36:33;;;;;;;13.28;6.10;;;;;;;-3.95;56.68;101810.16;1721421;82;21363;-62
2020/12/08 04:39:00;;;;;;;10.72;5.60;;;;;;;-3.98;56.84;101811.02;1721631;82;21207;-61
2020/12/08 04:41:28;;;;;;;12.50;5.67;;;;;;;-3.98;56.99;101816.16;1720420;82;21192;-61
2020/12/08 04:43:55;;;;;;;11.43;5.62;;;;;;;-3.97;56.69;101817.02;1721505;82;21422;-60
2020/12/08 04:46:24;;;;;;;13.00;6.10;;;;;;;-4.01;56.57;101820.00;1721840;80;21224;-61
2020/12/08 04:48:53;;;;;;;12.50;5.92;;;;;;;-4.09;56.40;101813.13;1720749;82;21279;-61
2020/12/08 04:51:22;;;;;;;13.38;5.62;;;;;;;-4.12;56.84;101812.27;1719968;82;21188;-61
2020/12/08 04:53:52;;;;;;;12.40;6.10;;;;;;;-4.12;57.04;101812.67;1718786;82;21204;-61
2020/12/08 04:56:20;;;;;;;13.70;5.03;;;;;;;-4.11;57.10;101811.39;1722543;82;22535;-61
2020/12/08 04:58:47;;;;;;;15.25;6.65;;;;;;;-4.12;56.88;101816.13;1721171;82;21184;-61
2020/12/08 05:01:25;;;;;;;14.63;6.90;;;;;;;-4.17;57.10;101813.08;1722917;82;21224;-60
2020/12/08 05:04:00;;;;;;;12.73;5.87;;;;;;;-4.16;57.27;101816.09;1722799;82;21508;-60
2020/12/08 05:06:28;;;;;;;16.85;6.00;;;;;;;-4.16;57.23;101809.67;1722530;82;21180;-61
2020/12/08 05:09:07;;;;;;;11.53;6.25;;;;;;;-4.18;57.23;101816.09;1723988;82;22082;-64
2020/12/08 05:11:37;;;;;;;11.08;5.90;;;;;;;-4.23;56.87;101815.65;1721850;82;21148;-60
2020/12/08 05:14:06;;;;;;;11.80;5.42;;;;;;;-4.27;57.23;101816.47;1722900;80;21633;-60
2020/12/08 05:16:35;;;;;;;12.55;5.55;;;;;;;-4.23;57.37;101816.94;1722549;82;21192;-64
2020/12/08 05:19:10;;;;;;;13.00;6.10;;;;;;;-4.21;57.11;101816.07;1722827;82;21615;-60
2020/12/08 05:21:51;;;;;;;12.60;5.42;;;;;;;-4.25;57.08;101811.78;1719689;82;21499;-60
2020/12/08 05:24:27;;;;;;;11.00;5.33;;;;;;;-4.30;57.40;101803.20;1706781;82;21671;-60
2020/12/08 05:27:04;;;;;;;11.18;5.03;;;;;;;-4.31;57.39;101803.60;1748723;79;21927;-59
2020/12/08 05:29:36;;;;;;;10.63;5.55;;;;;;;-4.39;57.65;101805.71;1730937;82;21100;-59
2020/12/08 05:32:29;;;;;;;11.88;5.20;;;;;;;-4.39;57.76;101800.57;1730498;82;21204;-60
2020/12/08 05:34:54;;;;;;;14.33;5.80;;;;;;;-4.37;57.53;101799.73;1729387;81;21219;-60
2020/12/08 05:37:22;;;;;;;10.63;5.47;;;;;;;-4.37;57.59;101804.88;1731121;82;22228;-61
2020/12/08 05:39:50;;;;;;;9.23;5.40;;;;;;;-4.40;57.75;101812.57;1733479;82;21136;-60
2020/12/08 05:42:20;;;;;;;8.80;5.40;;;;;;;-4.43;57.78;101809.98;1732391;82;21109;-60
2020/12/08 05:44:51;;;;;;;11.95;4.83;;;;;;;-4.42;58.02;101813.00;1731907;81;21372;-60
2020/12/08 05:47:20;;;;;;;11.22;6.00;;;;;;;-4.43;57.91;101814.27;1733623;82;21178;-60
2020/12/08 05:52:32;;;;;;;15.83;5.95;;;;;;;-4.43;57.81;101809.13;1871332;74;22339;-59
2020/12/08 05:55:23;;;;;;;10.08;4.83;;;;;;;-4.54;58.36;101807.77;1843684;75;21484;-59
2020/12/08 05:57:52;;;;;;;11.85;6.67;;;;;;;-4.58;59.20;101805.62;1844881;75;22836;-59
2020/12/08 06:00:30;;;;;;;9.43;4.92;;;;;;;-4.54;59.24;101818.93;1846276;75;21182;-59
2020/12/08 06:03:16;;;;;;;13.32;6.08;;;;;;;-4.55;59.10;101815.06;1784602;78;21127;-60
2020/12/08 06:05:46;;;;;;;13.85;5.70;;;;;;;-4.52;59.27;101818.94;1805706;77;21250;-60
2020/12/08 06:08:22;;;;;;;15.48;5.97;;;;;;;-4.50;59.04;101821.09;1777611;78;21136;-59
2020/12/08 06:10:54;;;;;;;;;;;;;;;-4.52;58.81;101826.65;1809702;77;21359;-60
2020/12/08 06:15:51;;;;;;;10.05;5.80;;;;;;;-4.48;58.95;101821.95;1794915;78;22221;-59
2020/12/08 06:18:38;;;;;;;11.08;5.45;;;;;;;-4.52;58.90;101830.50;1789687;78;21104;-60
2020/12/08 06:21:26;;;;;;;13.25;5.95;;;;;;;-4.54;59.11;101823.19;1791507;78;22240;-60
2020/12/08 06:24:03;;;;;;;15.28;5.42;;;;;;;-4.48;59.06;101831.78;1791136;78;21709;-60
2020/12/08 06:26:34;;;;;;;12.18;5.05;;;;;;;-4.45;58.97;101827.11;1790920;78;21128;-60
2020/12/08 06:29:08;;;;;;;12.88;6.00;;;;;;;-4.46;59.14;101824.53;1789636;78;21648;-60
2020/12/08 06:31:47;;;;;;;10.60;6.12;;;;;;;-4.47;59.12;101823.68;1791545;78;21673;-60
2020/12/08 06:34:31;;;;;;;10.40;5.33;;;;;;;-4.41;59.31;101824.97;1791254;78;21191;-60
2020/12/08 06:37:10;;;;;;;13.93;5.72;;;;;;;-4.32;59.13;101821.18;1790833;78;21604;-59
2020/12/08 06:39:38;;;;;;;9.13;4.28;;;;;;;-4.29;59.00;101822.89;1790944;78;21183;-61
2020/12/08 06:42:13;;;;;;;12.85;5.67;;;;;;;-4.23;59.11;101827.22;1788681;78;22509;-59
2020/12/08 06:44:41;;;;;;;14.20;7.08;;;;;;;-4.19;58.99;101825.92;1793586;78;21191;-60
2020/12/08 06:47:09;;;;;;;16.45;6.40;;;;;;;-4.12;58.77;101825.12;1792163;78;23474;-60
2020/12/08 06:49:41;;;;;;;12.70;6.25;;;;;;;-4.11;58.39;101828.55;1791700;78;21143;-61
2020/12/08 06:52:09;;;;;;;13.58;5.70;;;;;;;-4.09;58.50;101826.83;1791077;78;21118;-61
2020/12/08 06:54:36;;;;;;;21.90;5.78;;;;;;;-4.05;58.47;101823.44;1789178;78;21211;-61
2020/12/08 06:57:07;;;;;;;11.20;5.70;;;;;;;-4.03;58.32;101820.43;1787361;78;21562;-59
2020/12/08 06:59:35;;;;;;;11.63;5.75;;;;;;;-3.98;58.43;101830.74;1790768;78;23434;-60
2020/12/08 07:02:03;;;;;;;13.00;6.40;;;;;;;-4.01;58.42;101835.43;1790347;77;21171;-60
2020/12/08 07:04:31;;;;;;;12.68;6.17;;;;;;;-4.04;58.71;101825.56;1788847;77;21508;-74
2020/12/08 07:06:59;;;;;;;13.95;6.78;;;;;;;-4.01;58.97;101826.87;1790063;78;21322;-73
2020/12/08 07:09:33;;;;;;;8.73;4.83;;;;;;;-3.96;58.87;101832.45;1790613;78;21170;-60
2020/12/08 07:12:03;;;;;;;14.20;6.58;;;;;;;-3.95;58.78;101831.61;1792069;77;21400;-60
2020/12/08 07:14:31;;;;;;;11.15;5.45;;;;;;;-3.93;58.49;101830.33;1787199;78;21514;-59
2020/12/08 07:16:59;;;;;;;16.15;5.37;;;;;;;-3.93;58.87;101826.03;1778776;79;21109;-60
2020/12/08 07:19:29;;;;;;;14.83;6.85;;;;;;;-3.95;58.59;101817.46;1778892;78;21195;-61
2020/12/08 07:22:00;;;;;;;13.00;5.80;;;;;;;-3.95;58.34;101818.75;1776605;79;21526;-59
2020/12/08 07:24:30;;;;;;;12.88;6.83;;;;;;;-3.95;58.09;101827.75;1759359;79;21197;-60
2020/12/08 07:26:59;;;;;;;16.62;6.20;;;;;;;-3.94;58.25;101828.16;1778606;79;21153;-60
2020/12/08 07:29:27;;;;;;;10.95;5.55;;;;;;;-3.85;58.42;101823.91;1776471;79;21120;-60
2020/12/08 07:31:56;;;;;;;9.68;5.35;;;;;;;-3.81;58.75;101826.94;1762247;79;21112;-60
2020/12/08 07:34:25;;;;;;;12.00;6.42;;;;;;;-3.77;59.00;101832.50;1775603;79;21224;-60
2020/12/08 07:36:54;;;;;;;14.03;6.83;;;;;;;-3.75;58.54;101826.92;1759178;79;21368;-61
2020/12/08 07:39:22;;;;;;;11.50;6.45;;;;;;;-3.74;58.36;101822.22;1778023;79;21112;-59
2020/12/08 07:41:49;;;;;;;10.98;5.42;;;;;;;-3.78;58.26;101813.64;1776534;79;21184;-59
2020/12/08 07:44:17;;;;;;;14.60;5.05;;;;;;;-3.76;58.51;101818.80;1777631;79;21590;-59
2020/12/08 07:46:51;;;;;;;15.18;5.65;;;;;;;-3.69;58.22;101828.67;1779113;79;21657;-59
2020/12/08 07:49:18;;;;;;;15.23;5.80;;;;;;;-3.67;58.35;101830.37;1777882;79;21358;-59
2020/12/08 07:51:50;;;;;;;11.20;4.97;;;;;;;-3.65;58.21;101831.67;1777856;79;21266;-59
2020/12/08 07:54:18;;;;;;;11.40;4.95;;;;;;;-3.65;58.28;101830.38;1777488;79;21124;-59
2020/12/08 07:56:45;;;;;;;15.83;6.05;;;;;;;-3.63;58.36;101828.26;1776992;79;21124;-60
2020/12/08 07:59:14;;;;;;;13.40;6.20;;;;;;;-3.61;58.13;101832.97;1776350;79;21741;-60
2020/12/08 08:01:43;;;;;;;11.97;4.97;;;;;;;-3.57;57.87;101826.96;1776814;79;22632;-60
2020/12/08 08:04:11;;;;;;;11.33;5.15;;;;;;;-3.51;57.93;101825.25;1777304;79;21204;-60
2020/12/08 08:06:40;;;;;;;12.68;5.97;;;;;;;-3.50;57.97;101830.41;1778275;79;21670;-60
2020/12/08 08:09:07;;;;;;;9.03;4.78;;;;;;;-3.48;58.38;101828.72;1777502;79;21121;-60
2020/12/08 08:11:36;;;;;;;9.93;5.00;;;;;;;-3.45;57.73;101830.42;1777431;79;21100;-67
2020/12/08 08:14:04;;;;;;;13.72;5.45;;;;;;;-3.48;58.02;101822.28;1778242;79;21408;-66
2020/12/08 08:16:34;;;;;;;11.00;4.97;;;;;;;-3.47;58.10;101819.27;1776413;79;21220;-66
2020/12/08 08:19:03;;;;;;;11.57;4.92;;;;;;;-3.46;57.80;101822.26;1776179;79;21168;-67
2020/12/08 08:21:31;;;;;;;9.08;4.85;;;;;;;-3.43;57.72;101817.12;1777075;79;21212;-66
2020/12/08 08:27:28;;;;;;;16.65;5.95;;;;;;;-3.34;58.31;101808.12;1790157;78;22530;-64
2020/12/08 08:29:56;;;;;;;10.18;5.33;;;;;;;-3.30;58.22;101817.55;1791045;79;21132;-66
2020/12/08 08:32:24;;;;;;;12.05;5.80;;;;;;;-3.25;57.96;101809.41;1787872;79;21492;-63
2020/12/08 08:34:53;;;;;;;12.20;6.67;;;;;;;-3.21;57.45;101815.00;1788588;79;22475;-64
2020/12/08 08:37:21;;;;;;;8.08;4.53;;;;;;;-3.21;57.00;101807.69;1790437;79;21199;-64
2020/12/08 08:39:50;;;;;;;8.75;4.35;;;;;;;-3.21;56.77;101813.72;1787367;79;21218;-64
2020/12/08 08:42:19;;;;;;;15.28;5.95;;;;;;;-3.19;56.79;101810.70;1787839;79;21037;-64
2020/12/08 08:44:47;;;;;;;10.00;5.10;;;;;;;-3.09;56.63;101809.39;1790156;79;21335;-66
2020/12/08 08:47:15;;;;;;;11.15;5.53;;;;;;;-2.98;56.59;101799.95;1789309;79;21741;-66
2020/12/08 08:49:43;;;;;;;9.50;4.67;;;;;;;-2.92;56.40;101797.38;1789885;79;21184;-64
2020/12/08 08:52:10;;;;;;;13.30;5.53;;;;;;;-2.90;56.41;101794.36;1790008;79;21770;-65
2020/12/08 08:54:38;;;;;;;9.20;4.70;;;;;;;-2.87;56.17;101793.08;1788392;79;21205;-64
2020/12/08 08:57:06;;;;;;;10.32;5.35;;;;;;;-2.84;56.09;101790.91;1789196;79;21821;-64
2020/12/08 08:59:36;;;;;;;11.85;4.60;;;;;;;-2.78;56.06;101795.20;1789471;78;21626;-64
2020/12/08 09:02:03;;;;;;;9.40;4.83;;;;;;;-2.74;55.66;101789.17;1789564;79;21647;-64
2020/12/08 09:04:32;;;;;;;10.85;5.33;;;;;;;-2.73;55.47;101785.75;1787387;79;21824;-64
2020/12/08 09:07:00;;;;;;;12.28;5.30;;;;;;;-2.66;55.28;101783.58;1788982;79;21132;-64
2020/12/08 09:09:27;;;;;;;9.65;5.97;;;;;;;-2.62;55.36;101793.88;1789618;79;21758;-64
2020/12/08 09:11:56;;;;;;;8.15;4.60;;;;;;;-2.64;55.41;101793.03;1791193;79;21156;-64
2020/12/08 09:14:27;;;;;;;11.43;5.83;;;;;;;-2.64;55.47;101786.59;1792367;79;21160;-64
2020/12/08 09:16:54;;;;;;;10.93;5.42;;;;;;;-2.60;55.44;101789.16;1788133;79;22147;-63
2020/12/08 09:19:23;;;;;;;9.03;5.05;;;;;;;-2.59;55.35;101791.70;1791635;79;21124;-64
2020/12/08 09:21:53;;;;;;;11.83;4.65;;;;;;;-2.59;55.75;101789.13;1791174;79;21179;-65
2020/12/08 09:24:21;;;;;;;13.90;5.92;;;;;;;-2.63;56.08;101788.73;1790348;77;21227;-66
2020/12/08 09:26:48;;;;;;;15.75;4.55;;;;;;;-2.62;56.10;101796.90;1780715;78;21472;-66
2020/12/08 09:29:15;;;;;;;9.20;5.25;;;;;;;-2.61;56.49;101792.15;1775650;79;21188;-66
2020/12/08 09:31:43;;;;;;;13.00;5.40;;;;;;;-2.60;56.50;101792.59;1773915;79;21164;-63
2020/12/08 09:34:16;;;;;;;12.95;5.67;;;;;;;-2.65;56.51;101786.15;1775294;79;21774;-65
2020/12/08 09:36:43;;;;;;;12.70;5.70;;;;;;;-2.70;56.75;101789.17;1775091;79;21490;-64
2020/12/08 09:39:11;;;;;;;10.40;5.92;;;;;;;-2.71;56.91;101792.59;1774581;79;21195;-64
2020/12/08 09:41:39;;;;;;;12.73;5.83;;;;;;;-2.66;57.12;101786.16;1774684;79;21227;-63
2020/12/08 09:44:09;;;;;;;9.15;5.17;;;;;;;-2.63;56.90;101797.30;1773216;79;21179;-64
2020/12/08 09:46:43;;;;;;;12.73;6.00;;;;;;;-2.63;56.96;101796.45;1776110;79;21495;-64
2020/12/08 09:49:11;;;;;;;12.90;5.00;;;;;;;-2.67;56.72;101793.03;1776494;79;21675;-63
2020/12/08 09:51:38;;;;;;;9.95;4.45;;;;;;;-2.67;57.04;101796.90;1775748;79;21160;-64
2020/12/08 09:54:06;;;;;;;10.50;5.53;;;;;;;-2.64;57.12;101802.46;1712404;82;21839;-63
2020/12/08 09:56:33;;;;;;;11.40;5.60;;;;;;;-2.66;56.88;101795.17;1721388;82;21169;-63
2020/12/08 09:59:01;;;;;;;10.58;5.83;;;;;;;-2.69;57.22;101797.34;1774010;79;22385;-63
2020/12/08 10:01:32;;;;;;;17.40;5.80;;;;;;;-2.68;57.35;101793.03;1775729;79;21693;-64
2020/12/08 10:04:00;;;;;;;13.75;6.78;;;;;;;-2.67;57.57;101784.45;1776614;79;21175;-63
2020/12/08 10:06:28;;;;;;;12.10;5.42;;;;;;;-2.64;57.73;101789.58;1776164;79;21183;-63
2020/12/08 10:08:56;;;;;;;9.98;5.42;;;;;;;-2.63;57.60;101787.44;1773173;79;21167;-64
2020/12/08 10:11:25;;;;;;;12.40;5.83;;;;;;;-2.66;57.70;101787.44;1774260;79;21718;-66
2020/12/08 10:13:52;;;;;;;9.90;5.22;;;;;;;-2.65;57.88;101793.88;1748331;79;21216;-65
2020/12/08 10:16:24;;;;;;;10.35;4.95;;;;;;;-2.65;57.64;101778.86;1773891;79;21636;-65
2020/12/08 10:18:52;;;;;;;13.88;6.00;;;;;;;-2.63;58.08;101780.99;1774543;79;21160;-62
2020/12/08 10:21:23;;;;;;;13.08;6.03;;;;;;;-2.59;58.12;101774.95;1777891;79;21711;-64
2020/12/08 10:23:52;;;;;;;11.65;6.15;;;;;;;-2.59;58.05;101777.97;1772654;79;21256;-68
2020/12/08 10:26:21;;;;;;;11.85;5.17;;;;;;;-2.62;59.19;101778.42;1775395;78;21216;-66
2020/12/08 10:28:49;;;;;;;12.18;6.53;;;;;;;-2.59;59.25;101777.97;1771071;79;21181;-61
2020/12/08 10:31:18;;;;;;;13.88;6.62;;;;;;;-2.59;58.46;101774.95;1769163;79;21418;-61
2020/12/08 10:33:46;;;;;;;14.30;6.05;;;;;;;-2.55;58.16;101773.25;1770665;79;21696;-61
2020/12/08 10:36:14;;;;;;;14.15;4.40;;;;;;;-2.53;59.38;101771.08;1772083;79;22204;-62
2020/12/08 10:38:41;;;;;;;15.43;6.60;;;;;;;-2.51;58.37;101768.06;1773230;79;21139;-66
2020/12/08 10:41:09;;;;;;;13.10;6.85;;;;;;;-2.50;58.14;101767.20;1771676;79;21180;-67
2020/12/08 10:43:37;;;;;;;14.10;6.12;;;;;;;-2.47;58.23;101767.20;1769957;79;21188;-64
2020/12/08 10:46:05;;;;;;;14.85;6.05;;;;;;;-2.41;57.86;101768.89;1771055;79;21184;-59
2020/12/08 10:48:33;;;;;;;13.95;6.37;;;;;;;-2.38;57.69;101766.30;1768703;79;21265;-65
2020/12/08 10:51:01;;;;;;;11.22;6.85;;;;;;;-2.36;57.79;101764.56;1770351;79;21200;-62
2020/12/08 10:53:28;;;;;;;15.38;6.72;;;;;;;-2.29;57.58;101762.37;1770430;79;21156;-62
2020/12/08 10:55:56;;;;;;;14.25;7.00;;;;;;;-2.26;57.16;101753.34;1769954;79;21179;-62
2020/12/08 10:58:23;;;;;;;18.10;7.22;;;;;;;-2.26;57.29;101756.36;1770364;79;21658;-62
2020/12/08 11:00:52;;;;;;;11.45;6.05;;;;;;;-2.29;57.10;101762.37;1771990;79;22261;-62
2020/12/08 11:03:20;;;;;;;13.58;7.60;;;;;;;-2.28;57.57;101768.41;1768010;79;21192;-62
2020/12/08 11:05:47;;;;;;;12.98;6.00;;;;;;;-2.29;57.23;101764.95;1769528;79;21117;-61
2020/12/08 11:08:16;;;;;;;18.10;5.67;;;;;;;-2.28;57.30;101760.68;1772758;79;21615;-61
2020/12/08 11:10:44;;;;;;;16.73;6.70;;;;;;;-2.29;57.16;101771.84;1772807;79;21172;-62
2020/12/08 11:13:15;;;;;;;14.13;7.20;;;;;;;-2.30;56.92;101762.42;1771417;79;21351;-62
2020/12/08 11:15:44;;;;;;;12.00;6.92;;;;;;;-2.32;57.30;101765.00;1769766;79;21507;-62
2020/12/08 11:18:12;;;;;;;14.63;6.75;;;;;;;-2.30;57.60;101758.55;1772431;79;21150;-62
2020/12/08 11:20:42;;;;;;;14.80;7.00;;;;;;;-2.32;58.27;101765.41;1769540;79;21109;-61
2020/12/08 11:23:10;;;;;;;12.95;6.12;;;;;;;-2.32;58.16;101764.12;1750715;79;21496;-61
2020/12/08 11:25:38;;;;;;;16.05;5.62;;;;;;;-2.33;58.02;101761.13;1771141;79;22122;-62
2020/12/08 11:28:07;;;;;;;13.95;6.80;;;;;;;-2.31;57.40;101752.52;1772270;79;21176;-62
2020/12/08 11:30:34;;;;;;;14.95;7.17;;;;;;;-2.33;57.31;101747.80;1771381;79;21156;-62
2020/12/08 11:33:02;;;;;;;11.70;6.00;;;;;;;-2.37;57.32;101760.30;1747336;79;21160;-61
2020/12/08 11:35:32;;;;;;;11.53;5.87;;;;;;;-2.40;57.36;101751.69;1771842;79;21156;-62
2020/12/08 11:38:00;;;;;;;15.72;6.20;;;;;;;-2.42;57.42;101753.02;1772524;79;21342;-61
2020/12/08 11:40:28;;;;;;;17.40;8.18;;;;;;;-2.45;57.95;101756.45;1770569;79;21101;-62